Time;durP1;ratioP1;P1;durP2;ratioP2;P2;SDS_P1;SDS_P2;PMS_P1;PMS_P2;Temp;Humidity;BMP_temperature;BMP_pressure;BME280_temperature;BME280_humidity;BME280_pressure;Samples;Min_cycle;Max_cycle;Signal;HPM_P1;HPM_P2
2021/09/25 00:00:13;;;;;;;39.45;9.45;;;;;;;;;;4968223;28;20041;-77
2021/09/25 00:02:39;;;;;;;32.10;8.40;;;;;;;;;;4976868;28;20038;-77
2021/09/25 00:05:06;;;;;;;38.60;8.57;;;;;;;;;;4952560;28;20041;-76
2021/09/25 00:07:33;;;;;;;25.67;7.07;;;;;;;;;;4955448;28;20137;-77
2021/09/25 00:09:59;;;;;;;24.77;7.38;;;;;;;;;;4971806;28;20038;-80
2021/09/25 00:12:25;;;;;;;34.60;8.82;;;;;;;;;;4956475;28;20041;-76
2021/09/25 00:14:52;;;;;;;30.88;8.57;;;;;;;;;;4959450;28;20067;-77
2021/09/25 00:17:18;;;;;;;26.90;7.95;;;;;;;;;;4953294;28;20034;-76
2021/09/25 00:19:44;;;;;;;37.25;9.23;;;;;;;;;;4959860;28;20034;-76
2021/09/25 00:22:10;;;;;;;40.17;8.75;;;;;;;;;;4969665;28;20044;-76
2021/09/25 00:24:37;;;;;;;36.80;8.60;;;;;;;;;;4957159;28;20033;-76
2021/09/25 00:27:03;;;;;;;28.85;8.63;;;;;;;;;;4956391;28;20796;-76
2021/09/25 00:29:29;;;;;;;25.65;6.60;;;;;;;;;;4974095;28;20726;-76
2021/09/25 00:31:55;;;;;;;38.30;9.20;;;;;;;;;;4957634;28;21086;-76
2021/09/25 00:34:21;;;;;;;35.53;8.18;;;;;;;;;;4952886;28;20076;-76
2021/09/25 00:36:48;;;;;;;35.70;7.40;;;;;;;;;;4955478;28;20147;-77
2021/09/25 00:39:14;;;;;;;28.75;7.90;;;;;;;;;;4956665;28;20652;-77
2021/09/25 00:41:40;;;;;;;29.98;7.60;;;;;;;;;;4974365;28;20486;-77
2021/09/25 00:44:07;;;;;;;34.53;9.45;;;;;;;;;;4973553;28;20630;-76
2021/09/25 00:46:33;;;;;;;35.88;9.25;;;;;;;;;;4973873;28;20112;-76
2021/09/25 00:49:00;;;;;;;32.03;8.48;;;;;;;;;;4956117;28;20095;-77
2021/09/25 00:51:26;;;;;;;43.88;9.57;;;;;;;;;;4956434;28;20484;-76
2021/09/25 00:53:53;;;;;;;41.00;9.00;;;;;;;;;;4970976;28;20449;-76
2021/09/25 00:56:19;;;;;;;30.73;8.15;;;;;;;;;;4956707;28;20046;-76
2021/09/25 00:58:46;;;;;;;33.63;9.07;;;;;;;;;;4971920;28;20099;-75
2021/09/25 01:01:12;;;;;;;35.85;8.30;;;;;;;;;;4955397;28;20039;-76
2021/09/25 01:03:38;;;;;;;35.60;9.45;;;;;;;;;;4965374;28;20030;-76
2021/09/25 01:06:04;;;;;;;31.98;7.43;;;;;;;;;;4958344;28;20039;-75
2021/09/25 01:08:30;;;;;;;38.22;8.75;;;;;;;;;;4975209;28;20046;-77
2021/09/25 01:10:57;;;;;;;42.83;8.63;;;;;;;;;;4961933;28;20096;-77
2021/09/25 01:13:23;;;;;;;33.92;8.00;;;;;;;;;;4959490;28;20057;-77
2021/09/25 01:15:50;;;;;;;41.38;7.90;;;;;;;;;;4963727;28;20027;-77
2021/09/25 01:18:16;;;;;;;33.33;8.45;;;;;;;;;;4958077;28;21961;-77
2021/09/25 01:20:42;;;;;;;34.25;7.22;;;;;;;;;;4963841;28;20495;-77
2021/09/25 01:23:09;;;;;;;28.33;6.75;;;;;;;;;;4954729;28;20038;-77
2021/09/25 01:25:35;;;;;;;33.38;7.82;;;;;;;;;;4973289;28;20084;-78
2021/09/25 01:28:01;;;;;;;37.05;9.38;;;;;;;;;;4963517;28;20045;-77
2021/09/25 01:30:28;;;;;;;32.72;8.25;;;;;;;;;;4958072;28;20129;-78
2021/09/25 01:32:54;;;;;;;39.85;9.52;;;;;;;;;;4975730;28;20042;-77
2021/09/25 01:35:23;;;;;;;41.25;9.85;;;;;;;;;;4972599;28;20634;-79
2021/09/25 01:37:50;;;;;;;28.23;7.95;;;;;;;;;;4942147;28;20842;-78
2021/09/25 01:40:18;;;;;;;38.13;7.47;;;;;;;;;;4953976;28;23452;-78
2021/09/25 01:42:44;;;;;;;34.53;7.88;;;;;;;;;;4957886;28;20121;-78
2021/09/25 01:45:14;;;;;;;34.75;6.97;;;;;;;;;;4959073;28;20093;-76
2021/09/25 01:47:40;;;;;;;36.95;7.72;;;;;;;;;;4980357;28;20046;-76
2021/09/25 01:50:08;;;;;;;46.90;8.85;;;;;;;;;;4973513;28;20659;-76
2021/09/25 01:52:36;;;;;;;42.00;8.65;;;;;;;;;;4964134;28;20086;-76
2021/09/25 01:55:02;;;;;;;40.60;8.10;;;;;;;;;;4976380;28;20057;-76
2021/09/25 01:57:28;;;;;;;37.53;8.52;;;;;;;;;;4955755;28;20146;-76
2021/09/25 01:59:56;;;;;;;30.23;7.50;;;;;;;;;;4964819;28;20973;-76
2021/09/25 02:02:22;;;;;;;39.20;7.95;;;;;;;;;;4955844;28;21204;-77
2021/09/25 02:04:48;;;;;;;29.35;6.53;;;;;;;;;;4977481;28;20092;-76
2021/09/25 02:07:18;;;;;;;35.78;8.45;;;;;;;;;;4959688;28;20042;-77
2021/09/25 02:09:45;;;;;;;39.65;8.13;;;;;;;;;;4959295;28;20034;-77
2021/09/25 02:12:12;;;;;;;51.28;10.18;;;;;;;;;;4973680;28;20464;-77
2021/09/25 02:14:38;;;;;;;40.00;9.25;;;;;;;;;;4957778;28;20037;-75
2021/09/25 02:17:05;;;;;;;41.08;9.18;;;;;;;;;;4959158;28;20049;-76
2021/09/25 02:19:31;;;;;;;58.00;9.63;;;;;;;;;;4958963;28;20554;-76
2021/09/25 02:21:57;;;;;;;46.88;8.98;;;;;;;;;;4960863;28;20022;-75
2021/09/25 02:24:23;;;;;;;46.55;9.90;;;;;;;;;;4973557;28;21647;-76
2021/09/25 02:26:49;;;;;;;47.20;9.32;;;;;;;;;;4974210;28;20046;-76
2021/09/25 02:29:16;;;;;;;41.97;8.90;;;;;;;;;;4974570;28;20845;-77
2021/09/25 02:31:42;;;;;;;44.28;8.57;;;;;;;;;;4971653;28;20034;-78
2021/09/25 02:34:08;;;;;;;44.00;9.10;;;;;;;;;;4969861;28;20038;-78
2021/09/25 02:36:34;;;;;;;45.35;8.55;;;;;;;;;;4963213;28;20554;-76
2021/09/25 02:39:01;;;;;;;41.85;8.57;;;;;;;;;;4975259;28;20431;-76
2021/09/25 02:41:28;;;;;;;36.05;7.55;;;;;;;;;;4959624;28;20531;-77
2021/09/25 02:43:54;;;;;;;39.80;7.65;;;;;;;;;;4957569;28;20550;-76
2021/09/25 02:46:20;;;;;;;40.72;8.93;;;;;;;;;;4954882;28;20415;-76
2021/09/25 02:48:46;;;;;;;38.30;8.70;;;;;;;;;;4966254;28;20030;-77
2021/09/25 02:51:13;;;;;;;47.50;9.30;;;;;;;;;;4971445;28;20062;-77
2021/09/25 02:53:40;;;;;;;45.15;9.20;;;;;;;;;;4962270;28;20053;-78
2021/09/25 02:56:07;;;;;;;37.95;7.95;;;;;;;;;;4947610;28;20481;-77
2021/09/25 02:58:33;;;;;;;43.33;10.05;;;;;;;;;;4949082;28;20038;-77
2021/09/25 03:00:59;;;;;;;41.78;9.05;;;;;;;;;;4960961;28;20057;-77
2021/09/25 03:03:25;;;;;;;38.08;8.45;;;;;;;;;;4954621;28;20019;-77
2021/09/25 03:05:51;;;;;;;32.47;8.18;;;;;;;;;;4954800;28;20693;-77
2021/09/25 03:08:17;;;;;;;32.83;8.15;;;;;;;;;;4936251;28;20066;-77
2021/09/25 03:10:44;;;;;;;32.10;7.25;;;;;;;;;;4962663;28;20034;-77
2021/09/25 03:13:10;;;;;;;44.25;8.77;;;;;;;;;;4977917;28;20038;-77
2021/09/25 03:15:36;;;;;;;42.42;9.57;;;;;;;;;;4959174;28;20053;-77
2021/09/25 03:18:02;;;;;;;39.35;7.57;;;;;;;;;;4959109;28;20627;-77
2021/09/25 03:20:29;;;;;;;46.63;10.38;;;;;;;;;;4975801;28;20104;-77
2021/09/25 03:22:55;;;;;;;36.40;8.88;;;;;;;;;;4968561;28;20157;-77
2021/09/25 03:25:21;;;;;;;40.45;9.20;;;;;;;;;;4968898;28;20038;-76
2021/09/25 03:27:52;;;;;;;34.47;6.97;;;;;;;;;;4964259;28;20707;-77
2021/09/25 03:30:18;;;;;;;42.28;8.88;;;;;;;;;;4970435;28;20461;-77
2021/09/25 03:32:45;;;;;;;44.20;8.90;;;;;;;;;;4963140;28;20038;-78
2021/09/25 03:35:11;;;;;;;44.08;9.65;;;;;;;;;;4955584;28;20141;-76
2021/09/25 03:37:38;;;;;;;38.00;8.45;;;;;;;;;;4955164;28;20829;-76
2021/09/25 03:40:04;;;;;;;37.22;8.60;;;;;;;;;;4957029;28;20034;-76
2021/09/25 03:42:31;;;;;;;29.33;7.63;;;;;;;;;;4973530;28;20460;-76
2021/09/25 03:44:57;;;;;;;32.05;8.02;;;;;;;;;;4961794;28;20034;-77
2021/09/25 03:47:23;;;;;;;34.80;7.50;;;;;;;;;;4955004;28;20073;-77
2021/09/25 03:49:50;;;;;;;28.80;7.13;;;;;;;;;;4958711;28;20034;-77
2021/09/25 03:52:16;;;;;;;36.83;7.80;;;;;;;;;;4968884;28;20049;-77
2021/09/25 03:54:42;;;;;;;46.33;10.02;;;;;;;;;;4958296;28;20100;-76
2021/09/25 03:57:08;;;;;;;33.65;7.75;;;;;;;;;;4955575;28;20129;-76
2021/09/25 03:59:35;;;;;;;29.42;6.55;;;;;;;;;;4957817;28;20058;-76
2021/09/25 04:02:01;;;;;;;43.63;8.82;;;;;;;;;;4951935;28;20066;-78
2021/09/25 04:04:27;;;;;;;41.30;9.52;;;;;;;;;;4968286;28;20588;-77
2021/09/25 04:06:53;;;;;;;43.47;9.88;;;;;;;;;;4958263;28;20038;-76
2021/09/25 04:09:19;;;;;;;35.60;8.43;;;;;;;;;;4955749;28;20035;-76
2021/09/25 04:11:48;;;;;;;38.42;8.20;;;;;;;;;;4960209;28;20034;-76
2021/09/25 04:14:18;;;;;;;41.53;7.93;;;;;;;;;;4967750;28;21256;-76
2021/09/25 04:16:45;;;;;;;58.10;9.43;;;;;;;;;;4959342;28;20039;-76
2021/09/25 04:19:11;;;;;;;37.13;8.32;;;;;;;;;;4970856;28;20036;-76
2021/09/25 04:21:37;;;;;;;52.05;9.88;;;;;;;;;;4972831;28;20031;-76
2021/09/25 04:24:03;;;;;;;47.67;9.43;;;;;;;;;;4959419;28;20756;-77
2021/09/25 04:26:30;;;;;;;49.80;10.38;;;;;;;;;;4959031;28;20102;-76
2021/09/25 04:28:57;;;;;;;50.72;9.27;;;;;;;;;;4977377;28;20149;-77
2021/09/25 04:31:23;;;;;;;40.92;8.30;;;;;;;;;;4959299;28;20036;-77
2021/09/25 04:33:50;;;;;;;44.97;9.05;;;;;;;;;;4959699;28;20061;-79
2021/09/25 04:36:16;;;;;;;39.70;9.00;;;;;;;;;;4975583;28;20638;-78
2021/09/25 04:38:42;;;;;;;39.22;9.30;;;;;;;;;;4959834;28;20556;-76
2021/09/25 04:41:08;;;;;;;49.63;10.35;;;;;;;;;;4989118;28;20540;-77
2021/09/25 04:43:34;;;;;;;54.13;9.00;;;;;;;;;;4972738;28;20445;-76
2021/09/25 04:46:01;;;;;;;55.13;9.52;;;;;;;;;;4966821;28;20771;-76
2021/09/25 04:48:27;;;;;;;36.78;7.22;;;;;;;;;;4959562;28;20104;-76
2021/09/25 04:50:53;;;;;;;37.08;8.30;;;;;;;;;;4960847;28;20030;-76
2021/09/25 04:53:20;;;;;;;55.30;9.68;;;;;;;;;;4958964;28;20042;-76
2021/09/25 04:55:46;;;;;;;39.88;9.27;;;;;;;;;;4976902;28;20088;-78
2021/09/25 04:58:13;;;;;;;52.33;10.05;;;;;;;;;;4959282;28;20041;-76
2021/09/25 05:00:39;;;;;;;41.95;9.20;;;;;;;;;;4960419;28;20133;-76
2021/09/25 05:03:05;;;;;;;42.35;8.95;;;;;;;;;;4950837;28;20023;-77
2021/09/25 05:05:32;;;;;;;55.38;10.05;;;;;;;;;;4963330;28;20041;-76
2021/09/25 05:07:58;;;;;;;43.70;9.05;;;;;;;;;;4959130;28;20047;-78
2021/09/25 05:10:24;;;;;;;41.30;9.18;;;;;;;;;;4955626;28;20692;-76
2021/09/25 05:12:51;;;;;;;49.55;9.77;;;;;;;;;;4959883;28;20065;-76
2021/09/25 05:15:17;;;;;;;43.28;8.13;;;;;;;;;;4971390;28;21859;-77
2021/09/25 05:17:43;;;;;;;46.78;8.82;;;;;;;;;;4958743;28;20073;-77
2021/09/25 05:20:10;;;;;;;41.53;9.75;;;;;;;;;;4954003;28;20031;-77
2021/09/25 05:22:36;;;;;;;49.55;10.15;;;;;;;;;;4974528;28;20047;-76
2021/09/25 05:25:03;;;;;;;54.15;10.00;;;;;;;;;;4961199;28;20488;-77
2021/09/25 05:27:30;;;;;;;50.78;9.32;;;;;;;;;;4970762;28;20505;-77
2021/09/25 05:29:56;;;;;;;39.75;7.50;;;;;;;;;;4961782;28;20295;-77
2021/09/25 05:32:24;;;;;;;49.63;9.68;;;;;;;;;;4953819;28;20088;-76
2021/09/25 05:34:50;;;;;;;50.05;9.35;;;;;;;;;;4958250;28;20041;-76
2021/09/25 05:37:20;;;;;;;46.38;9.30;;;;;;;;;;4972203;28;20257;-77
2021/09/25 05:39:47;;;;;;;39.20;8.23;;;;;;;;;;4956899;28;20026;-77
2021/09/25 05:42:13;;;;;;;32.72;6.80;;;;;;;;;;4950396;28;20534;-77
2021/09/25 05:44:44;;;;;;;41.85;8.32;;;;;;;;;;4958001;28;20050;-77
2021/09/25 05:47:11;;;;;;;40.75;8.93;;;;;;;;;;4953285;28;20038;-76
2021/09/25 05:50:03;;;;;;;37.58;7.72;;;;;;;;;;4973410;28;20107;-78
2021/09/25 05:52:29;;;;;;;42.50;8.93;;;;;;;;;;4958435;28;20171;-78
2021/09/25 05:54:56;;;;;;;29.65;7.57;;;;;;;;;;4958769;28;21209;-77
2021/09/25 05:57:22;;;;;;;42.75;8.30;;;;;;;;;;4958356;28;20117;-76
2021/09/25 05:59:48;;;;;;;34.28;7.88;;;;;;;;;;4959300;28;20050;-76
2021/09/25 06:02:14;;;;;;;40.85;9.27;;;;;;;;;;4956080;28;20043;-77
2021/09/25 06:04:40;;;;;;;43.58;9.75;;;;;;;;;;4961510;28;20046;-77
2021/09/25 06:07:11;;;;;;;36.78;9.02;;;;;;;;;;4955779;28;20057;-76
2021/09/25 06:09:37;;;;;;;41.58;8.57;;;;;;;;;;4958483;28;20118;-76
2021/09/25 06:12:04;;;;;;;38.60;9.02;;;;;;;;;;4957955;28;20125;-76
2021/09/25 06:14:31;;;;;;;43.58;9.57;;;;;;;;;;4962744;28;20045;-76
2021/09/25 06:16:57;;;;;;;36.13;9.40;;;;;;;;;;4961378;28;20815;-77
2021/09/25 06:19:23;;;;;;;45.10;8.75;;;;;;;;;;4955345;28;24223;-77
2021/09/25 06:21:49;;;;;;;37.83;8.75;;;;;;;;;;4960958;28;20021;-78
2021/09/25 06:24:15;;;;;;;42.58;12.63;;;;;;;;;;4975416;28;20026;-76
2021/09/25 06:26:42;;;;;;;37.70;9.85;;;;;;;;;;4963209;28;20050;-76
2021/09/25 06:29:08;;;;;;;42.55;9.50;;;;;;;;;;4960359;28;20031;-76
2021/09/25 06:31:35;;;;;;;33.55;8.32;;;;;;;;;;4962820;28;20045;-76
2021/09/25 06:34:03;;;;;;;37.25;8.40;;;;;;;;;;4965936;28;20054;-76
2021/09/25 06:36:32;;;;;;;27.70;7.43;;;;;;;;;;4980842;28;20216;-77
2021/09/25 06:38:59;;;;;;;30.50;6.85;;;;;;;;;;4964039;28;20030;-77
2021/09/25 06:41:25;;;;;;;35.33;7.95;;;;;;;;;;4958477;28;20041;-77
2021/09/25 06:43:51;;;;;;;37.28;7.80;;;;;;;;;;4966301;28;20056;-77
2021/09/25 06:46:18;;;;;;;34.67;7.82;;;;;;;;;;4959402;28;20054;-77
2021/09/25 06:48:44;;;;;;;40.70;9.23;;;;;;;;;;4965091;28;20033;-77
2021/09/25 06:51:10;;;;;;;28.33;7.57;;;;;;;;;;4959531;28;20022;-77
2021/09/25 06:53:36;;;;;;;26.33;7.53;;;;;;;;;;4961318;28;20338;-77
2021/09/25 06:56:04;;;;;;;30.83;7.15;;;;;;;;;;4961554;28;20270;-77
2021/09/25 06:58:33;;;;;;;34.00;7.53;;;;;;;;;;4966166;28;20596;-79
2021/09/25 07:01:00;;;;;;;34.85;8.18;;;;;;;;;;4960508;28;20069;-77
2021/09/25 07:03:27;;;;;;;30.23;7.60;;;;;;;;;;4958922;28;20783;-76
2021/09/25 07:05:53;;;;;;;35.65;8.73;;;;;;;;;;4977076;28;20095;-76
2021/09/25 07:08:19;;;;;;;29.60;7.35;;;;;;;;;;4970532;28;20804;-77
2021/09/25 07:10:50;;;;;;;26.95;7.78;;;;;;;;;;4961722;28;20050;-77
2021/09/25 07:13:18;;;;;;;31.23;8.55;;;;;;;;;;4961131;28;20683;-77
2021/09/25 07:15:44;;;;;;;36.97;9.02;;;;;;;;;;4959308;28;20030;-78
2021/09/25 07:18:11;;;;;;;28.20;8.73;;;;;;;;;;4973790;28;20054;-78
2021/09/25 07:20:37;;;;;;;38.90;9.32;;;;;;;;;;4982661;28;20648;-77
2021/09/25 07:23:03;;;;;;;35.42;9.85;;;;;;;;;;4973512;28;20037;-77
2021/09/25 07:25:30;;;;;;;30.70;7.78;;;;;;;;;;4957303;28;20379;-78
2021/09/25 07:27:56;;;;;;;34.33;9.80;;;;;;;;;;4961631;28;20026;-76
2021/09/25 07:30:23;;;;;;;38.60;13.40;;;;;;;;;;4957079;28;20042;-77
2021/09/25 07:32:49;;;;;;;52.30;17.35;;;;;;;;;;4978809;28;20037;-77
2021/09/25 07:35:15;;;;;;;40.95;13.93;;;;;;;;;;4961224;28;20034;-77
2021/09/25 07:37:42;;;;;;;43.78;14.10;;;;;;;;;;4964401;28;20030;-77
2021/09/25 07:40:09;;;;;;;39.33;12.95;;;;;;;;;;4954150;28;20484;-78
2021/09/25 07:42:35;;;;;;;44.78;12.13;;;;;;;;;;4965682;28;20468;-77
2021/09/25 07:45:02;;;;;;;39.38;9.35;;;;;;;;;;4960833;28;20034;-77
2021/09/25 07:47:28;;;;;;;33.47;7.35;;;;;;;;;;4976279;28;20488;-76
2021/09/25 07:49:54;;;;;;;29.80;7.15;;;;;;;;;;4959664;28;20034;-77
2021/09/25 07:52:20;;;;;;;38.55;7.55;;;;;;;;;;4974858;28;20043;-78
2021/09/25 07:54:46;;;;;;;26.80;6.28;;;;;;;;;;4962367;28;20030;-77
2021/09/25 07:57:13;;;;;;;35.45;7.97;;;;;;;;;;4956076;28;20057;-77
2021/09/25 07:59:39;;;;;;;33.08;8.02;;;;;;;;;;4974328;28;20046;-75
2021/09/25 08:02:06;;;;;;;34.63;7.97;;;;;;;;;;4958318;28;20100;-77
2021/09/25 08:04:32;;;;;;;30.95;7.13;;;;;;;;;;4958337;28;20054;-77
2021/09/25 08:06:58;;;;;;;26.83;6.43;;;;;;;;;;4961572;28;20030;-77
2021/09/25 08:09:24;;;;;;;24.38;6.50;;;;;;;;;;4957807;28;20033;-78
2021/09/25 08:11:51;;;;;;;29.33;6.68;;;;;;;;;;4976941;28;20038;-78
2021/09/25 08:14:17;;;;;;;29.73;5.97;;;;;;;;;;4957513;28;20124;-76
2021/09/25 08:16:44;;;;;;;36.22;8.00;;;;;;;;;;4960484;28;20038;-78
2021/09/25 08:19:10;;;;;;;34.42;7.63;;;;;;;;;;4977453;28;20516;-78
2021/09/25 08:21:37;;;;;;;43.80;8.00;;;;;;;;;;4980285;28;20034;-78
2021/09/25 08:24:03;;;;;;;33.97;7.00;;;;;;;;;;4993158;28;20035;-78
2021/09/25 08:26:29;;;;;;;27.23;6.10;;;;;;;;;;4961125;28;20030;-76
2021/09/25 08:28:55;;;;;;;37.50;7.22;;;;;;;;;;4963065;28;20048;-76
2021/09/25 08:31:22;;;;;;;35.33;6.70;;;;;;;;;;4957810;28;20117;-76
2021/09/25 08:33:48;;;;;;;35.17;7.22;;;;;;;;;;4973824;28;20084;-77
2021/09/25 08:36:14;;;;;;;40.63;7.68;;;;;;;;;;4955935;28;20150;-77
2021/09/25 08:38:40;;;;;;;37.90;7.18;;;;;;;;;;4958237;28;20038;-78
2021/09/25 08:41:06;;;;;;;36.35;6.32;;;;;;;;;;4954057;28;20125;-76
2021/09/25 08:43:33;;;;;;;28.92;5.80;;;;;;;;;;4960591;28;20061;-78
2021/09/25 08:46:00;;;;;;;41.97;7.22;;;;;;;;;;4956641;28;20133;-77
2021/09/25 08:48:27;;;;;;;34.85;6.90;;;;;;;;;;4956639;28;20077;-77
2021/09/25 08:50:54;;;;;;;36.55;6.78;;;;;;;;;;4974824;28;20034;-77
2021/09/25 08:53:20;;;;;;;39.45;6.47;;;;;;;;;;4952532;28;20058;-77
2021/09/25 08:55:47;;;;;;;40.40;6.85;;;;;;;;;;4963398;28;20108;-77
2021/09/25 08:58:13;;;;;;;40.17;5.95;;;;;;;;;;4955721;28;20038;-77
2021/09/25 09:00:49;;;;;;;35.55;6.70;;;;;;;;;;4954685;28;20134;-77
2021/09/25 09:03:36;;;;;;;46.22;7.63;;;;;;;;;;4957938;28;20459;-76
2021/09/25 09:06:10;;;;;;;43.13;6.60;;;;;;;;;;4955186;28;20039;-77
2021/09/25 09:08:37;;;;;;;41.83;7.43;;;;;;;;;;4975569;28;20122;-77
2021/09/25 09:11:05;;;;;;;40.63;6.55;;;;;;;;;;4975557;28;20034;-77
2021/09/25 09:13:31;;;;;;;43.00;6.90;;;;;;;;;;4958468;28;20125;-78
2021/09/25 09:16:02;;;;;;;42.20;6.63;;;;;;;;;;4963839;28;20042;-78
2021/09/25 09:18:30;;;;;;;48.05;7.57;;;;;;;;;;4952881;28;20122;-78
2021/09/25 09:21:02;;;;;;;42.63;7.10;;;;;;;;;;4960620;28;20053;-78
2021/09/25 09:23:30;;;;;;;36.72;6.57;;;;;;;;;;4975177;28;20046;-77
2021/09/25 09:25:56;;;;;;;49.60;6.78;;;;;;;;;;4961779;28;20460;-78
2021/09/25 09:28:25;;;;;;;40.28;6.57;;;;;;;;;;4960397;28;20132;-78
2021/09/25 09:30:53;;;;;;;37.20;7.40;;;;;;;;;;4962896;28;20026;-78
2021/09/25 09:33:28;;;;;;;45.90;7.68;;;;;;;;;;4957860;28;20106;-78
2021/09/25 09:36:10;;;;;;;47.75;7.25;;;;;;;;;;4964716;28;20049;-78
2021/09/25 09:38:49;;;;;;;43.78;6.57;;;;;;;;;;4962024;28;20039;-77
2021/09/25 09:41:16;;;;;;;41.97;7.18;;;;;;;;;;4958078;28;20073;-78
2021/09/25 09:43:46;;;;;;;50.33;6.85;;;;;;;;;;4962842;28;20050;-77
2021/09/25 09:46:13;;;;;;;35.83;6.50;;;;;;;;;;4955368;28;20053;-79
2021/09/25 09:48:40;;;;;;;46.78;7.60;;;;;;;;;;4980015;28;20034;-77
2021/09/25 09:51:10;;;;;;;40.40;6.70;;;;;;;;;;4959588;28;20043;-77
2021/09/25 09:53:44;;;;;;;39.75;6.75;;;;;;;;;;4958958;28;20065;-77
2021/09/25 09:56:20;;;;;;;38.88;6.95;;;;;;;;;;4957647;28;20748;-79
2021/09/25 09:58:56;;;;;;;44.08;6.75;;;;;;;;;;4952719;28;20897;-76
2021/09/25 10:01:22;;;;;;;42.00;8.63;;;;;;;;;;4957240;28;20089;-77
2021/09/25 10:03:49;;;;;;;49.28;7.57;;;;;;;;;;4959784;28;20097;-78
2021/09/25 10:06:15;;;;;;;39.90;6.57;;;;;;;;;;4971486;28;20069;-78
2021/09/25 10:08:42;;;;;;;44.90;6.78;;;;;;;;;;4972976;28;20038;-77
2021/09/25 10:11:09;;;;;;;43.78;7.60;;;;;;;;;;4958356;28;20026;-77
2021/09/25 10:13:35;;;;;;;42.35;6.95;;;;;;;;;;4959575;28;20038;-76
2021/09/25 10:16:01;;;;;;;34.22;6.60;;;;;;;;;;4974929;28;20126;-77
2021/09/25 10:18:28;;;;;;;38.40;7.85;;;;;;;;;;4969455;28;20033;-76
2021/09/25 10:20:54;;;;;;;36.70;8.70;;;;;;;;;;4963540;28;20042;-77
2021/09/25 10:23:21;;;;;;;38.00;7.07;;;;;;;;;;4955898;28;20160;-78
2021/09/25 10:25:48;;;;;;;36.65;6.80;;;;;;;;;;4967830;28;20050;-76
2021/09/25 10:28:24;;;;;;;40.47;6.90;;;;;;;;;;4989120;28;20034;-77
2021/09/25 10:30:51;;;;;;;40.25;6.93;;;;;;;;;;4960554;28;20030;-76
2021/09/25 10:33:22;;;;;;;37.55;6.03;;;;;;;;;;4959430;28;20049;-76
2021/09/25 10:35:49;;;;;;;35.15;5.57;;;;;;;;;;4972659;28;20074;-77
2021/09/25 10:38:30;;;;;;;38.72;6.35;;;;;;;;;;4955800;28;20373;-77
2021/09/25 10:41:12;;;;;;;29.08;6.00;;;;;;;;;;4965218;28;20034;-77
2021/09/25 10:43:42;;;;;;;33.83;5.80;;;;;;;;;;4955251;28;20419;-77
2021/09/25 10:46:10;;;;;;;41.60;6.43;;;;;;;;;;4954845;28;20041;-77
2021/09/25 10:48:45;;;;;;;36.38;5.97;;;;;;;;;;4960754;28;20031;-77
2021/09/25 10:51:14;;;;;;;42.55;7.07;;;;;;;;;;4950803;28;20030;-77
2021/09/25 10:53:41;;;;;;;43.40;6.22;;;;;;;;;;4962569;28;20669;-77
2021/09/25 10:56:14;;;;;;;35.47;6.85;;;;;;;;;;4972768;28;20062;-78
2021/09/25 10:58:41;;;;;;;36.40;6.00;;;;;;;;;;4970211;28;20120;-78
2021/09/25 11:01:10;;;;;;;39.67;7.05;;;;;;;;;;4974530;28;20238;-76
2021/09/25 11:03:43;;;;;;;36.85;6.85;;;;;;;;;;4956595;28;20370;-77
2021/09/25 11:06:23;;;;;;;42.33;6.68;;;;;;;;;;4968739;28;20051;-77
2021/09/25 11:08:51;;;;;;;41.00;6.43;;;;;;;;;;4959983;28;20041;-77
2021/09/25 11:11:18;;;;;;;35.50;5.78;;;;;;;;;;4953058;28;20039;-77
2021/09/25 11:14:05;;;;;;;33.60;5.35;;;;;;;;;;4956722;28;20034;-77
2021/09/25 11:16:44;;;;;;;33.80;6.47;;;;;;;;;;4957702;28;20031;-76
2021/09/25 11:19:12;;;;;;;33.67;6.20;;;;;;;;;;4967754;28;20038;-78
2021/09/25 11:21:38;;;;;;;36.53;6.60;;;;;;;;;;4977201;28;20093;-77
2021/09/25 11:24:04;;;;;;;38.45;5.97;;;;;;;;;;4957451;28;20544;-77
2021/09/25 11:26:35;;;;;;;37.47;5.93;;;;;;;;;;4955361;28;20045;-79
2021/09/25 11:29:08;;;;;;;39.58;6.20;;;;;;;;;;4958238;28;20046;-77
2021/09/25 11:31:34;;;;;;;45.22;7.35;;;;;;;;;;4957250;28;20092;-79
2021/09/25 11:34:00;;;;;;;33.53;6.45;;;;;;;;;;4970419;28;20235;-78
2021/09/25 11:36:30;;;;;;;39.38;6.97;;;;;;;;;;4953184;28;20724;-78
2021/09/25 11:38:56;;;;;;;31.15;5.18;;;;;;;;;;4956382;28;20121;-78
2021/09/25 11:41:23;;;;;;;35.67;6.15;;;;;;;;;;4953536;28;20035;-79
2021/09/25 11:43:56;;;;;;;36.97;5.93;;;;;;;;;;4975859;28;20522;-78
2021/09/25 11:46:26;;;;;;;33.22;5.80;;;;;;;;;;4966047;28;20514;-78
2021/09/25 11:48:57;;;;;;;33.85;6.38;;;;;;;;;;4957189;28;20961;-78
2021/09/25 11:51:23;;;;;;;38.97;6.68;;;;;;;;;;4955172;28;20041;-79
2021/09/25 11:53:59;;;;;;;37.65;6.22;;;;;;;;;;4971897;28;20045;-78
2021/09/25 11:56:28;;;;;;;34.85;5.90;;;;;;;;;;4954248;28;20053;-78
2021/09/25 11:58:58;;;;;;;42.72;6.03;;;;;;;;;;4956776;28;20845;-77
2021/09/25 12:01:25;;;;;;;36.38;6.50;;;;;;;;;;4967938;28;20050;-79
2021/09/25 12:03:51;;;;;;;33.03;6.05;;;;;;;;;;4973617;28;20026;-77
2021/09/25 12:06:17;;;;;;;36.20;6.05;;;;;;;;;;4953254;28;20026;-77
2021/09/25 12:08:48;;;;;;;37.47;5.93;;;;;;;;;;4957499;28;20050;-77
2021/09/25 12:11:14;;;;;;;38.63;6.03;;;;;;;;;;4950921;28;20069;-77
2021/09/25 12:13:44;;;;;;;38.90;6.70;;;;;;;;;;4973094;28;20049;-76
2021/09/25 12:16:21;;;;;;;36.97;6.03;;;;;;;;;;4953167;28;20042;-77
2021/09/25 12:18:52;;;;;;;42.65;5.97;;;;;;;;;;4958047;28;20034;-76
2021/09/25 12:21:22;;;;;;;43.20;6.60;;;;;;;;;;4954867;28;20753;-79
2021/09/25 12:24:05;;;;;;;34.83;6.32;;;;;;;;;;4956374;28;20073;-79
2021/09/25 12:26:33;;;;;;;43.90;7.00;;;;;;;;;;4978388;28;20030;-78
2021/09/25 12:29:01;;;;;;;41.75;6.45;;;;;;;;;;4964391;28;20125;-78
2021/09/25 12:31:30;;;;;;;42.67;7.32;;;;;;;;;;4962521;28;20100;-78
2021/09/25 12:34:04;;;;;;;50.25;7.03;;;;;;;;;;4962261;28;20480;-78
2021/09/25 12:36:33;;;;;;;37.33;6.88;;;;;;;;;;4964537;28;20077;-77
2021/09/25 12:39:02;;;;;;;39.67;7.22;;;;;;;;;;4973184;28;20084;-77
2021/09/25 12:41:28;;;;;;;38.35;6.38;;;;;;;;;;4957753;28;20228;-78
2021/09/25 12:43:56;;;;;;;35.22;7.03;;;;;;;;;;4960064;28;20061;-77
2021/09/25 12:46:24;;;;;;;45.03;7.05;;;;;;;;;;4955511;28;20077;-77
2021/09/25 12:49:09;;;;;;;48.78;7.45;;;;;;;;;;4958531;28;20045;-77
2021/09/25 12:51:40;;;;;;;37.80;6.82;;;;;;;;;;4959458;28;20030;-77
2021/09/25 12:54:08;;;;;;;43.78;7.40;;;;;;;;;;4955225;28;20382;-77
2021/09/25 12:56:43;;;;;;;38.92;7.70;;;;;;;;;;4949708;28;20105;-77
2021/09/25 12:59:12;;;;;;;39.60;6.80;;;;;;;;;;4969476;28;20031;-77
2021/09/25 13:01:41;;;;;;;37.28;7.20;;;;;;;;;;4973820;28;20042;-76
2021/09/25 13:04:19;;;;;;;35.05;7.13;;;;;;;;;;4971935;28;20031;-77
2021/09/25 13:06:48;;;;;;;46.53;7.38;;;;;;;;;;4961514;28;20022;-77
2021/09/25 13:09:16;;;;;;;37.30;7.05;;;;;;;;;;4959078;28;20555;-76
2021/09/25 13:12:02;;;;;;;39.67;7.07;;;;;;;;;;4963150;28;20030;-78
2021/09/25 13:14:29;;;;;;;34.35;6.40;;;;;;;;;;4961938;28;20035;-76
2021/09/25 13:16:56;;;;;;;43.65;7.38;;;;;;;;;;4959426;28;20030;-78
2021/09/25 13:19:25;;;;;;;43.90;6.38;;;;;;;;;;4956864;28;20045;-77
2021/09/25 13:21:51;;;;;;;37.72;6.80;;;;;;;;;;4962675;28;20022;-77
2021/09/25 13:24:18;;;;;;;27.63;5.97;;;;;;;;;;4972571;28;20023;-78
2021/09/25 13:26:45;;;;;;;39.70;7.20;;;;;;;;;;4962775;28;20543;-77
2021/09/25 13:29:11;;;;;;;39.92;6.70;;;;;;;;;;4955303;28;20047;-78
2021/09/25 13:31:38;;;;;;;37.15;6.00;;;;;;;;;;4959734;28;20047;-77
2021/09/25 13:34:05;;;;;;;40.55;6.63;;;;;;;;;;4957258;28;20042;-78
2021/09/25 13:36:34;;;;;;;28.85;5.05;;;;;;;;;;4965068;28;20030;-78
2021/09/25 13:39:01;;;;;;;34.42;5.90;;;;;;;;;;4959917;28;20574;-78
2021/09/25 13:41:30;;;;;;;31.75;6.28;;;;;;;;;;4957808;28;20129;-78
2021/09/25 13:43:57;;;;;;;31.65;6.05;;;;;;;;;;4961909;28;20041;-77
2021/09/25 13:46:23;;;;;;;29.20;5.40;;;;;;;;;;4957669;28;20118;-77
2021/09/25 13:48:53;;;;;;;31.10;6.13;;;;;;;;;;4960590;28;20034;-77
2021/09/25 13:51:19;;;;;;;30.95;5.85;;;;;;;;;;4956337;28;20026;-78
2021/09/25 13:53:46;;;;;;;27.90;5.63;;;;;;;;;;4972938;28;20038;-77
2021/09/25 13:56:12;;;;;;;33.60;5.45;;;;;;;;;;4957088;28;20031;-77
2021/09/25 13:58:39;;;;;;;30.08;5.20;;;;;;;;;;4959875;28;20927;-77
2021/09/25 14:01:06;;;;;;;32.65;5.78;;;;;;;;;;4971853;28;20041;-77
2021/09/25 14:03:59;;;;;;;28.88;5.90;;;;;;;;;;4957383;28;20035;-77
2021/09/25 14:06:25;;;;;;;29.27;5.25;;;;;;;;;;4957726;28;20042;-76
2021/09/25 14:08:52;;;;;;;28.65;4.95;;;;;;;;;;4960422;28;20038;-76
2021/09/25 14:11:18;;;;;;;26.38;4.93;;;;;;;;;;4971370;28;20559;-77
2021/09/25 14:13:44;;;;;;;30.30;5.28;;;;;;;;;;4958525;28;20120;-78
2021/09/25 14:16:10;;;;;;;25.83;5.20;;;;;;;;;;4949924;28;20066;-78
2021/09/25 14:18:41;;;;;;;32.55;5.65;;;;;;;;;;4962825;28;20460;-78
2021/09/25 14:21:09;;;;;;;27.45;5.75;;;;;;;;;;4955769;28;20038;-77
2021/09/25 14:23:35;;;;;;;33.38;5.50;;;;;;;;;;4959922;28;20040;-77
2021/09/25 14:26:01;;;;;;;33.10;5.82;;;;;;;;;;4956796;28;20061;-78
2021/09/25 14:28:28;;;;;;;29.38;5.15;;;;;;;;;;4956906;28;20137;-77
2021/09/25 14:30:54;;;;;;;23.13;4.78;;;;;;;;;;4972540;28;20057;-77